createdAt,value
2019-02-23T00:00:44.003Z,3.80
2019-02-23T00:01:49.825Z,3.80
2019-02-23T00:02:54.156Z,3.80
2019-02-23T00:03:58.696Z,3.80
2019-02-23T00:05:03.134Z,3.80
2019-02-23T00:06:07.536Z,3.70
2019-02-23T00:07:11.975Z,3.70
2019-02-23T00:08:16.328Z,3.80
2019-02-23T00:09:20.644Z,3.70
2019-02-23T00:10:25.071Z,3.70
2019-02-23T00:11:29.606Z,3.70
2019-02-23T00:12:33.961Z,3.70
2019-02-23T00:13:38.367Z,3.70
2019-02-23T00:14:42.808Z,3.70
2019-02-23T00:15:47.231Z,3.70
2019-02-23T00:16:51.648Z,3.70
2019-02-23T00:17:56.096Z,3.70
2019-02-23T00:19:00.528Z,3.70
2019-02-23T00:20:05.073Z,3.70
2019-02-23T00:21:09.479Z,3.70
2019-02-23T00:22:13.887Z,3.70
2019-02-23T00:23:18.192Z,3.70
2019-02-23T00:24:22.629Z,3.70
2019-02-23T00:25:27.233Z,3.70
2019-02-23T00:26:31.671Z,3.70
2019-02-23T00:27:36.082Z,3.70
2019-02-23T00:28:40.427Z,3.70
2019-02-23T00:29:44.836Z,3.70
2019-02-23T00:30:49.272Z,3.70
2019-02-23T00:31:53.693Z,3.70
2019-02-23T00:32:58.082Z,3.60
2019-02-23T00:34:02.424Z,3.60
2019-02-23T00:35:06.879Z,3.60
2019-02-23T00:36:11.327Z,3.60
2019-02-23T00:37:15.731Z,3.50
2019-02-23T00:38:20.111Z,3.50
2019-02-23T00:39:24.417Z,3.50
2019-02-23T00:40:28.896Z,3.50
2019-02-23T00:41:33.404Z,3.50
2019-02-23T00:42:37.736Z,3.50
2019-02-23T00:43:42.111Z,3.50
2019-02-23T00:44:46.785Z,3.50
2019-02-23T00:45:51.124Z,3.50
2019-02-23T00:46:55.546Z,3.60
2019-02-23T00:47:59.903Z,3.60
2019-02-23T00:49:04.245Z,3.60
2019-02-23T00:50:08.599Z,3.60
2019-02-23T00:51:12.925Z,3.60
2019-02-23T00:52:17.244Z,3.50
2019-02-23T00:53:21.585Z,3.50
2019-02-23T00:54:25.941Z,3.50
2019-02-23T00:55:30.397Z,3.50
2019-02-23T00:56:34.912Z,3.40
2019-02-23T00:57:39.270Z,3.40
2019-02-23T00:58:43.680Z,3.50
2019-02-23T00:59:48.070Z,3.40
2019-02-23T01:00:52.449Z,3.50
2019-02-23T01:01:56.783Z,3.50
2019-02-23T01:03:01.141Z,3.50
2019-02-23T01:04:05.510Z,3.50
2019-02-23T01:05:09.868Z,3.50
2019-02-23T01:06:14.320Z,3.50
2019-02-23T01:07:18.702Z,3.40
2019-02-23T01:08:23.070Z,3.50
2019-02-23T01:09:27.590Z,3.40
2019-02-23T01:10:32.050Z,3.40
2019-02-23T01:11:36.405Z,3.40
2019-02-23T01:12:40.747Z,3.40
2019-02-23T01:13:45.188Z,3.40
2019-02-23T01:15:50.673Z,3.40
2019-02-23T01:16:55.007Z,3.30
2019-02-23T01:17:59.444Z,3.30
2019-02-23T01:19:03.844Z,3.40
2019-02-23T01:20:10.292Z,3.40
2019-02-23T01:21:14.756Z,3.30
2019-02-23T01:22:19.279Z,3.30
2019-02-23T01:23:23.633Z,3.30
2019-02-23T01:24:28.082Z,3.40
2019-02-23T01:25:32.498Z,3.40
2019-02-23T01:26:37.927Z,3.30
2019-02-23T01:27:42.268Z,3.30
2019-02-23T01:28:46.879Z,3.30
2019-02-23T01:29:51.288Z,3.30
2019-02-23T01:30:55.631Z,3.40
2019-02-23T01:31:59.960Z,3.40
2019-02-23T01:33:04.302Z,3.40
2019-02-23T01:34:08.792Z,3.40
2019-02-23T01:35:14.353Z,3.40
2019-02-23T01:36:18.868Z,3.40
2019-02-23T01:37:24.497Z,3.30
2019-02-23T01:38:28.992Z,3.30
2019-02-23T01:39:33.417Z,3.30
2019-02-23T01:40:37.871Z,3.30
2019-02-23T01:41:42.226Z,3.30
2019-02-23T01:42:46.824Z,3.30
2019-02-23T01:43:51.205Z,3.30
2019-02-23T01:44:55.527Z,3.30
2019-02-23T01:45:59.943Z,3.30
2019-02-23T01:47:04.408Z,3.30
2019-02-23T01:48:08.860Z,3.30
2019-02-23T01:49:14.996Z,3.30
2019-02-23T01:50:19.339Z,3.30
2019-02-23T01:51:23.747Z,3.40
2019-02-23T01:52:28.195Z,3.40
2019-02-23T01:53:32.783Z,3.40
2019-02-23T01:54:37.279Z,3.40
2019-02-23T01:55:41.648Z,3.40
2019-02-23T01:56:46.028Z,3.40
2019-02-23T01:57:50.632Z,3.30
2019-02-23T01:58:54.926Z,3.40
2019-02-23T01:59:59.237Z,3.30
2019-02-23T02:01:03.557Z,3.40
2019-02-23T02:02:07.931Z,3.30
2019-02-23T02:03:12.315Z,3.30
2019-02-23T02:04:16.660Z,3.30
2019-02-23T02:05:21.018Z,3.30
2019-02-23T02:06:25.465Z,3.30
2019-02-23T02:07:29.881Z,3.30
2019-02-23T02:08:35.104Z,3.30
2019-02-23T02:09:39.425Z,3.30
2019-02-23T02:10:43.811Z,3.30
2019-02-23T02:11:49.569Z,3.30
2019-02-23T02:12:53.955Z,3.30
2019-02-23T02:13:58.533Z,3.20
2019-02-23T02:15:03.372Z,3.20
2019-02-23T02:16:07.767Z,3.20
2019-02-23T02:17:12.568Z,3.20
2019-02-23T02:18:16.972Z,3.20
2019-02-23T02:19:21.395Z,3.20
2019-02-23T02:20:25.768Z,3.20
2019-02-23T02:21:30.212Z,3.20
2019-02-23T02:22:35.730Z,3.20
2019-02-23T02:23:40.081Z,3.20
2019-02-23T02:24:44.449Z,3.20
2019-02-23T02:25:48.899Z,3.20
2019-02-23T02:26:53.220Z,3.20
2019-02-23T02:27:57.640Z,3.20
2019-02-23T02:29:02.099Z,3.20
2019-02-23T02:30:07.334Z,3.20
2019-02-23T02:31:11.879Z,3.20
2019-02-23T02:32:16.564Z,3.20
2019-02-23T02:33:21.221Z,3.20
2019-02-23T02:34:28.462Z,3.20
2019-02-23T02:35:33.179Z,3.20
2019-02-23T02:36:37.624Z,3.20
2019-02-23T02:37:42.077Z,3.20
2019-02-23T02:38:48.023Z,3.10
2019-02-23T02:39:52.367Z,3.10
2019-02-23T02:40:56.785Z,3.10
2019-02-23T02:42:01.131Z,3.10
2019-02-23T02:43:05.499Z,3.00
2019-02-23T02:44:10.021Z,3.10
2019-02-23T02:45:14.461Z,3.10
2019-02-23T02:46:20.154Z,3.10
2019-02-23T02:47:24.467Z,3.10
2019-02-23T02:48:28.806Z,3.10
2019-02-23T02:49:33.401Z,3.10
2019-02-23T02:50:37.720Z,3.10
2019-02-23T02:51:43.057Z,3.00
2019-02-23T02:52:47.432Z,3.00
2019-02-23T02:53:51.800Z,3.00
2019-02-23T02:54:56.156Z,3.00
2019-02-23T02:56:01.581Z,3.10
2019-02-23T02:57:06.029Z,3.00
2019-02-23T02:58:10.530Z,3.00
2019-02-23T02:59:14.984Z,3.00
2019-02-23T03:00:19.338Z,3.00
2019-02-23T03:01:23.707Z,3.00
2019-02-23T03:02:28.107Z,3.00
2019-02-23T03:03:32.748Z,3.00
2019-02-23T03:04:38.360Z,3.00
2019-02-23T03:05:42.782Z,3.00
2019-02-23T03:06:47.220Z,3.00
2019-02-23T03:07:51.833Z,3.00
2019-02-23T03:08:56.321Z,3.00
2019-02-23T03:10:00.670Z,3.00
2019-02-23T03:11:05.050Z,3.00
2019-02-23T03:12:28.603Z,3.00
2019-02-23T03:13:34.545Z,3.00
2019-02-23T03:14:38.882Z,3.00
2019-02-23T03:15:43.380Z,3.00
2019-02-23T03:16:47.708Z,3.00
2019-02-23T03:17:52.300Z,3.00
2019-02-23T03:18:56.664Z,3.00
2019-02-23T03:20:01.133Z,3.00
2019-02-23T03:21:05.580Z,3.00
2019-02-23T03:22:10.005Z,3.00
2019-02-23T03:23:19.204Z,3.00
2019-02-23T03:24:25.505Z,3.00
2019-02-23T03:25:29.614Z,3.00
2019-02-23T03:26:33.964Z,3.00
2019-02-23T03:27:38.626Z,3.00
2019-02-23T03:28:42.977Z,3.00
2019-02-23T03:29:47.327Z,3.00
2019-02-23T03:30:51.656Z,3.00
2019-02-23T03:31:56.092Z,3.00
2019-02-23T03:33:00.455Z,3.00
2019-02-23T03:34:04.891Z,3.00
2019-02-23T03:35:09.320Z,3.00
2019-02-23T03:36:13.638Z,3.00
2019-02-23T03:37:18.049Z,3.00
2019-02-23T03:38:22.374Z,2.90
2019-02-23T03:39:28.301Z,2.90
2019-02-23T03:40:32.872Z,2.90
2019-02-23T03:41:37.683Z,2.90
2019-02-23T03:42:42.036Z,2.90
2019-02-23T03:43:46.470Z,2.90
2019-02-23T03:44:50.812Z,2.90
2019-02-23T03:45:55.143Z,2.90
2019-02-23T03:46:59.488Z,2.90
2019-02-23T03:48:03.844Z,2.90
2019-02-23T03:49:09.316Z,2.80
2019-02-23T03:50:13.674Z,2.80
2019-02-23T03:51:18.057Z,2.80
2019-02-23T03:52:23.488Z,2.70
2019-02-23T03:53:27.888Z,2.60
2019-02-23T03:54:32.361Z,2.60
2019-02-23T03:55:37.558Z,2.70
2019-02-23T03:56:42.011Z,2.60
2019-02-23T03:57:46.426Z,2.60
2019-02-23T03:58:50.763Z,2.60
2019-02-23T03:59:55.164Z,2.60
2019-02-23T04:01:00.832Z,2.60
2019-02-23T04:02:05.157Z,2.60
2019-02-23T04:03:09.694Z,2.60
2019-02-23T04:04:14.077Z,2.60
2019-02-23T04:05:18.415Z,2.60
2019-02-23T04:06:22.904Z,2.50
2019-02-23T04:07:27.431Z,2.60
2019-02-23T04:08:31.904Z,2.60
2019-02-23T04:09:36.274Z,2.60
2019-02-23T04:10:40.881Z,2.60
2019-02-23T04:11:45.370Z,2.60
2019-02-23T04:12:49.834Z,2.50
2019-02-23T04:13:54.448Z,2.60
2019-02-23T04:14:58.929Z,2.50
2019-02-23T04:16:03.268Z,2.60
2019-02-23T04:17:07.625Z,2.50
2019-02-23T04:18:11.980Z,2.50
2019-02-23T04:19:16.290Z,2.50
2019-02-23T04:20:20.651Z,2.50
2019-02-23T04:21:25.184Z,2.50
2019-02-23T04:22:29.658Z,2.50
2019-02-23T04:23:34.129Z,2.50
2019-02-23T04:24:38.526Z,2.50
2019-02-23T04:25:42.978Z,2.50
2019-02-23T04:26:47.339Z,2.40
2019-02-23T04:27:52.057Z,2.40
2019-02-23T04:28:56.488Z,2.40
2019-02-23T04:30:00.854Z,2.40
2019-02-23T04:32:15.632Z,2.30
2019-02-23T04:33:19.988Z,2.30
2019-02-23T04:34:24.406Z,2.30
2019-02-23T04:35:28.770Z,2.30
2019-02-23T04:36:33.253Z,2.30
2019-02-23T04:37:38.579Z,2.30
2019-02-23T04:38:43.039Z,2.30
2019-02-23T04:39:47.456Z,2.30
2019-02-23T04:40:51.993Z,2.30
2019-02-23T04:41:56.497Z,2.30
2019-02-23T04:43:02.000Z,2.30
2019-02-23T04:44:06.373Z,2.30
2019-02-23T04:45:10.748Z,2.20
2019-02-23T04:46:15.129Z,2.30
2019-02-23T04:47:19.497Z,2.30
2019-02-23T04:48:23.779Z,2.20
2019-02-23T04:49:28.198Z,2.20
2019-02-23T04:50:32.537Z,2.20
2019-02-23T04:51:36.979Z,2.10
2019-02-23T04:52:41.553Z,2.10
2019-02-23T04:53:45.917Z,2.00
2019-02-23T04:54:50.293Z,2.00
2019-02-23T04:55:55.905Z,2.00
2019-02-23T04:57:01.396Z,2.00
2019-02-23T04:58:05.805Z,2.00
2019-02-23T04:59:11.945Z,2.00
2019-02-23T05:00:16.631Z,2.00
2019-02-23T05:01:21.151Z,2.00
2019-02-23T05:02:27.474Z,2.00
2019-02-23T05:03:31.846Z,2.00
2019-02-23T05:04:36.173Z,2.00
2019-02-23T05:05:40.510Z,2.00
2019-02-23T05:06:44.847Z,2.00
2019-02-23T05:07:49.172Z,2.00
2019-02-23T05:08:53.476Z,2.00
2019-02-23T05:09:57.845Z,2.00
2019-02-23T05:11:02.285Z,2.00
2019-02-23T05:12:06.713Z,2.00
2019-02-23T05:13:11.148Z,2.00
2019-02-23T05:14:17.682Z,2.00
2019-02-23T05:15:23.449Z,2.00
2019-02-23T05:16:27.767Z,2.00
2019-02-23T05:17:32.162Z,2.00
2019-02-23T05:18:36.530Z,2.00
2019-02-23T05:19:40.914Z,2.00
2019-02-23T05:20:45.287Z,1.90
2019-02-23T05:21:49.647Z,1.90
2019-02-23T05:22:54.145Z,1.90
2019-02-23T05:23:58.532Z,1.90
2019-02-23T05:25:02.908Z,1.90
2019-02-23T05:26:07.204Z,2.00
2019-02-23T05:27:11.588Z,1.90
2019-02-23T05:28:16.137Z,1.90
2019-02-23T05:29:20.494Z,1.90
2019-02-23T05:30:24.850Z,1.90
2019-02-23T05:31:29.678Z,1.80
2019-02-23T05:32:34.060Z,1.80
2019-02-23T05:33:38.475Z,1.80
2019-02-23T05:34:42.873Z,1.80
2019-02-23T05:35:47.230Z,1.80
2019-02-23T05:36:51.633Z,1.80
2019-02-23T05:37:56.413Z,1.70
2019-02-23T05:39:00.742Z,1.80
2019-02-23T05:40:06.718Z,1.80
2019-02-23T05:41:11.229Z,1.80
2019-02-23T05:42:15.779Z,1.70
2019-02-23T05:43:20.224Z,1.70
2019-02-23T05:44:24.560Z,1.70
2019-02-23T05:45:29.286Z,1.60
2019-02-23T05:46:33.947Z,1.60
2019-02-23T05:47:38.354Z,1.60
2019-02-23T05:48:42.980Z,1.50
2019-02-23T05:49:48.839Z,1.50
2019-02-23T05:50:53.337Z,1.50
2019-02-23T05:51:59.116Z,1.50
2019-02-23T05:53:06.076Z,1.50
2019-02-23T05:54:11.403Z,1.50
2019-02-23T05:55:17.535Z,1.50
2019-02-23T05:56:21.974Z,1.60
2019-02-23T05:57:26.784Z,1.50
2019-02-23T05:58:31.464Z,1.50
2019-02-23T05:59:36.066Z,1.50
2019-02-23T06:00:40.587Z,1.50
2019-02-23T06:01:44.953Z,1.50
2019-02-23T06:02:49.332Z,1.50
2019-02-23T06:03:54.476Z,1.50
2019-02-23T06:04:59.976Z,1.50
2019-02-23T06:06:04.528Z,1.50
2019-02-23T06:07:08.908Z,1.40
2019-02-23T06:08:13.471Z,1.40
2019-02-23T06:09:17.880Z,1.40
2019-02-23T06:10:22.244Z,1.30
2019-02-23T06:11:27.536Z,1.30
2019-02-23T06:12:31.863Z,1.30
2019-02-23T06:13:36.226Z,1.30
2019-02-23T06:14:40.760Z,1.30
2019-02-23T06:15:45.099Z,1.30
2019-02-23T06:16:49.481Z,1.30
2019-02-23T06:17:54.620Z,1.30
2019-02-23T06:19:00.556Z,1.30
2019-02-23T06:20:05.240Z,1.30
2019-02-23T06:21:10.063Z,1.30
2019-02-23T06:22:15.296Z,1.30
2019-02-23T06:23:19.661Z,1.30
2019-02-23T06:24:24.383Z,1.20
2019-02-23T06:25:28.723Z,1.20
2019-02-23T06:26:35.423Z,1.20
2019-02-23T06:27:39.740Z,1.20
2019-02-23T06:28:44.140Z,1.20
2019-02-23T06:29:50.382Z,1.20
2019-02-23T06:30:54.843Z,1.20
2019-02-23T06:31:59.165Z,1.10
2019-02-23T06:33:03.475Z,1.20
2019-02-23T06:34:16.217Z,1.10
2019-02-23T06:35:13.976Z,1.10
2019-02-23T06:36:21.133Z,1.10
2019-02-23T06:37:25.484Z,1.10
2019-02-23T06:38:29.872Z,1.00
2019-02-23T06:39:34.241Z,1.10
2019-02-23T06:40:38.544Z,1.10
2019-02-23T06:41:42.906Z,1.10
2019-02-23T06:42:47.215Z,1.10
2019-02-23T06:43:51.600Z,1.20
2019-02-23T06:44:56.023Z,1.20
2019-02-23T06:46:00.499Z,1.20
2019-02-23T06:47:04.932Z,1.20
2019-02-23T06:48:09.421Z,1.20
2019-02-23T06:49:14.039Z,1.20
2019-02-23T06:50:21.425Z,1.20
2019-02-23T06:51:25.741Z,1.20
2019-02-23T06:52:30.192Z,1.20
2019-02-23T06:53:34.656Z,1.20
2019-02-23T06:54:39.084Z,1.20
2019-02-23T06:55:43.989Z,1.30
2019-02-23T06:56:48.553Z,1.30
2019-02-23T06:57:54.922Z,1.30
2019-02-23T06:58:59.265Z,1.30
2019-02-23T07:00:04.961Z,1.30
2019-02-23T07:01:10.245Z,1.40
2019-02-23T07:02:16.583Z,1.40
2019-02-23T07:03:20.954Z,1.30
2019-02-23T07:04:25.463Z,1.40
2019-02-23T07:05:30.857Z,1.40
2019-02-23T07:06:35.293Z,1.40
2019-02-23T07:07:39.848Z,1.40
2019-02-23T07:08:44.321Z,1.40
2019-02-23T07:10:08.425Z,1.50
2019-02-23T07:11:12.949Z,1.50
2019-02-23T07:12:17.528Z,1.50
2019-02-23T07:13:21.837Z,1.50
2019-02-23T07:14:26.407Z,1.50
2019-02-23T07:15:32.544Z,1.60
2019-02-23T07:16:37.019Z,1.60
2019-02-23T07:17:41.600Z,1.60
2019-02-23T07:18:46.391Z,1.60
2019-02-23T07:19:52.043Z,1.60
2019-02-23T07:20:56.502Z,1.70
2019-02-23T07:22:00.919Z,1.70
2019-02-23T07:23:05.582Z,1.60
2019-02-23T07:24:11.061Z,1.70
2019-02-23T07:25:18.138Z,1.70
2019-02-23T07:26:22.609Z,1.70
2019-02-23T07:27:27.056Z,1.80
2019-02-23T07:28:31.664Z,1.70
2019-02-23T07:29:36.192Z,1.80
2019-02-23T07:30:40.742Z,1.80
2019-02-23T07:31:45.262Z,1.80
2019-02-23T07:32:50.126Z,1.80
2019-02-23T07:33:54.720Z,1.90
2019-02-23T07:34:59.228Z,1.90
2019-02-23T07:36:03.786Z,1.90
2019-02-23T07:37:08.454Z,1.90
2019-02-23T07:38:13.578Z,1.90
2019-02-23T07:39:17.941Z,2.00
2019-02-23T07:40:22.771Z,1.90
2019-02-23T07:41:27.576Z,2.00
2019-02-23T07:42:32.068Z,2.00
2019-02-23T07:43:36.729Z,2.00
2019-02-23T07:44:42.406Z,2.10
2019-02-23T07:45:46.929Z,2.10
2019-02-23T07:46:51.390Z,2.20
2019-02-23T07:47:56.209Z,2.30
2019-02-23T07:49:00.927Z,2.50
2019-02-23T07:50:07.371Z,2.50
2019-02-23T07:51:12.113Z,2.70
2019-02-23T07:52:25.936Z,2.80
2019-02-23T07:53:23.245Z,2.90
2019-02-23T07:54:28.006Z,2.90
2019-02-23T07:55:32.756Z,3.00
2019-02-23T07:56:37.955Z,3.10
2019-02-23T07:57:42.729Z,3.20
2019-02-23T07:58:47.593Z,3.20
2019-02-23T07:59:52.318Z,3.30
2019-02-23T08:00:57.012Z,3.20
2019-02-23T08:02:02.010Z,3.20
2019-02-23T08:03:06.652Z,3.20
2019-02-23T08:04:12.173Z,3.30
2019-02-23T08:05:16.729Z,3.30
2019-02-23T08:06:23.765Z,3.30
2019-02-23T08:07:28.372Z,3.20
2019-02-23T08:08:32.945Z,3.30
2019-02-23T08:09:37.952Z,3.50
2019-02-23T08:10:42.654Z,3.60
2019-02-23T08:11:47.270Z,3.70
2019-02-23T08:12:51.907Z,3.80
2019-02-23T08:13:56.659Z,3.90
2019-02-23T08:15:01.206Z,4.20
2019-02-23T08:16:05.822Z,4.40
2019-02-23T08:17:10.561Z,4.40
2019-02-23T08:18:15.745Z,4.50
2019-02-23T08:19:20.368Z,4.50
2019-02-23T08:20:25.147Z,4.30
2019-02-23T08:21:30.187Z,4.40
2019-02-23T08:22:37.355Z,4.40
2019-02-23T08:23:40.942Z,4.50
2019-02-23T08:24:45.504Z,4.70
2019-02-23T08:25:50.409Z,4.80
2019-02-23T08:26:54.995Z,4.90
2019-02-23T08:28:00.036Z,5.10
2019-02-23T08:29:04.611Z,5.10
2019-02-23T08:30:11.245Z,5.10
2019-02-23T08:31:16.888Z,4.90
2019-02-23T08:32:22.649Z,5.00
2019-02-23T08:33:27.648Z,4.90
2019-02-23T08:34:32.402Z,5.00
2019-02-23T08:35:37.479Z,5.00
2019-02-23T08:36:41.964Z,5.10
2019-02-23T08:37:46.359Z,5.20
2019-02-23T08:38:50.819Z,5.20
2019-02-23T08:39:55.218Z,5.20
2019-02-23T08:40:59.792Z,5.30
2019-02-23T08:42:04.600Z,5.40
2019-02-23T08:43:09.098Z,5.50
2019-02-23T08:44:14.155Z,5.60
2019-02-23T08:45:20.475Z,5.60
2019-02-23T08:46:25.033Z,5.70
2019-02-23T08:47:29.548Z,5.70
2019-02-23T08:48:35.810Z,5.60
2019-02-23T08:49:40.443Z,5.70
2019-02-23T08:50:44.889Z,5.80
2019-02-23T08:51:49.325Z,6.00
2019-02-23T08:52:53.824Z,6.10
2019-02-23T08:53:58.503Z,6.20
2019-02-23T08:55:04.110Z,6.30
2019-02-23T08:56:08.559Z,6.30
2019-02-23T08:57:13.356Z,6.30
2019-02-23T08:58:17.784Z,6.50
2019-02-23T08:59:22.290Z,6.50
2019-02-23T09:00:26.691Z,6.60
2019-02-23T09:01:31.303Z,6.80
2019-02-23T09:02:35.910Z,6.70
2019-02-23T09:03:40.583Z,6.50
2019-02-23T09:04:46.382Z,6.40
2019-02-23T09:05:50.909Z,6.50
2019-02-23T09:06:55.414Z,6.40
2019-02-23T09:08:00.125Z,6.50
2019-02-23T09:09:08.097Z,6.60
2019-02-23T09:10:13.010Z,6.70
2019-02-23T09:11:17.758Z,6.70
2019-02-23T09:12:22.628Z,6.90
2019-02-23T09:13:27.070Z,7.00
2019-02-23T09:14:31.572Z,7.10
2019-02-23T09:15:36.414Z,7.00
2019-02-23T09:16:41.100Z,7.00
2019-02-23T09:17:45.520Z,7.10
2019-02-23T09:18:50.018Z,7.20
2019-02-23T09:19:54.487Z,7.20
2019-02-23T09:20:59.935Z,7.20
2019-02-23T09:22:04.400Z,7.20
2019-02-23T09:23:08.880Z,7.40
2019-02-23T09:24:13.767Z,7.50
2019-02-23T09:25:18.307Z,7.60
2019-02-23T09:26:22.906Z,7.50
2019-02-23T09:27:27.314Z,7.60
2019-02-23T09:28:31.807Z,7.60
2019-02-23T09:29:38.842Z,7.70
2019-02-23T09:30:43.347Z,7.70
2019-02-23T09:31:48.090Z,7.80
2019-02-23T09:32:52.790Z,8.10
2019-02-23T09:33:57.270Z,8.20
2019-02-23T09:35:01.755Z,8.20
2019-02-23T09:36:06.240Z,8.20
2019-02-23T09:37:10.864Z,8.20
2019-02-23T09:38:15.380Z,8.30
2019-02-23T09:39:19.875Z,8.30
2019-02-23T09:40:24.393Z,8.30
2019-02-23T09:41:28.778Z,8.30
2019-02-23T09:42:33.164Z,8.40
2019-02-23T09:43:38.064Z,8.60
2019-02-23T09:44:42.647Z,8.70
2019-02-23T09:45:47.281Z,8.70
2019-02-23T09:46:51.805Z,8.80
2019-02-23T09:47:56.581Z,8.80
2019-02-23T09:49:01.198Z,8.70
2019-02-23T09:50:05.637Z,8.70
2019-02-23T09:51:10.150Z,8.50
2019-02-23T09:52:14.810Z,8.40
2019-02-23T09:53:19.353Z,8.40
2019-02-23T09:54:26.934Z,8.50
2019-02-23T09:55:32.553Z,8.50
2019-02-23T09:56:37.089Z,8.60
2019-02-23T09:57:41.614Z,8.60
2019-02-23T09:58:46.131Z,8.50
2019-02-23T09:59:50.683Z,8.20
2019-02-23T10:00:55.152Z,8.10
2019-02-23T10:01:59.709Z,8.20
2019-02-23T10:03:04.210Z,8.00
2019-02-23T10:04:08.653Z,8.00
2019-02-23T10:05:13.460Z,8.10
2019-02-23T10:06:17.876Z,7.90
2019-02-23T10:07:22.380Z,7.90
2019-02-23T10:08:26.780Z,8.00
2019-02-23T10:09:31.350Z,8.10
2019-02-23T10:10:37.088Z,7.90
2019-02-23T10:11:41.496Z,7.90
2019-02-23T10:12:45.942Z,7.90
2019-02-23T10:13:50.556Z,8.10
2019-02-23T10:14:55.149Z,8.20
2019-02-23T10:15:59.698Z,8.30
2019-02-23T10:17:04.175Z,8.30
2019-02-23T10:18:08.955Z,8.30
2019-02-23T10:19:13.809Z,8.30
2019-02-23T10:20:18.901Z,8.20
2019-02-23T10:21:23.461Z,8.00
2019-02-23T10:22:27.967Z,8.00
2019-02-23T10:23:32.567Z,8.00
2019-02-23T10:24:37.691Z,8.10
2019-02-23T10:25:42.297Z,8.30
2019-02-23T10:26:46.816Z,8.30
2019-02-23T10:27:51.436Z,8.40
2019-02-23T10:28:56.295Z,8.60
2019-02-23T10:30:01.018Z,8.60
2019-02-23T10:31:05.758Z,8.70
2019-02-23T10:32:10.729Z,8.80
2019-02-23T10:33:15.266Z,9.00
2019-02-23T10:34:19.917Z,9.00
2019-02-23T10:35:24.684Z,9.00
2019-02-23T10:36:29.229Z,9.00
2019-02-23T10:37:37.334Z,9.10
2019-02-23T10:38:41.899Z,9.20
2019-02-23T10:39:46.509Z,9.30
2019-02-23T10:40:50.966Z,9.40
2019-02-23T10:41:55.782Z,9.50
2019-02-23T10:43:00.210Z,9.50
2019-02-23T10:44:04.854Z,9.40
2019-02-23T10:45:10.290Z,9.20
2019-02-23T10:46:14.751Z,9.20
2019-02-23T10:47:19.440Z,9.20
2019-02-23T10:48:24.696Z,8.90
2019-02-23T10:49:29.318Z,8.90
2019-02-23T10:50:33.895Z,8.70
2019-02-23T10:51:38.863Z,8.70
2019-02-23T10:52:43.417Z,8.70
2019-02-23T10:53:47.963Z,8.70
2019-02-23T10:54:52.548Z,8.70
2019-02-23T10:55:57.065Z,8.80
2019-02-23T10:57:09.190Z,8.80
2019-02-23T10:58:14.029Z,8.70
2019-02-23T10:59:18.501Z,8.50
2019-02-23T11:00:23.591Z,8.60
2019-02-23T11:01:28.140Z,8.60
2019-02-23T11:02:32.614Z,8.70
2019-02-23T11:03:37.042Z,8.70
2019-02-23T11:04:41.374Z,8.90
2019-02-23T11:05:46.338Z,8.90
2019-02-23T11:06:50.805Z,9.00
2019-02-23T11:07:55.447Z,9.10
2019-02-23T11:09:03.469Z,9.20
2019-02-23T11:10:08.099Z,9.20
2019-02-23T11:11:12.784Z,9.20
2019-02-23T11:12:17.305Z,9.20
2019-02-23T11:13:21.797Z,9.20
2019-02-23T11:14:26.516Z,9.20
2019-02-23T11:15:31.772Z,9.10
2019-02-23T11:16:36.344Z,9.10
2019-02-23T11:17:41.343Z,8.90
2019-02-23T11:18:45.944Z,8.90
2019-02-23T11:19:50.558Z,8.90
2019-02-23T11:20:55.098Z,8.70
2019-02-23T11:21:59.947Z,8.70
2019-02-23T11:23:04.597Z,8.70
2019-02-23T11:24:10.373Z,8.80
2019-02-23T11:25:15.348Z,8.90
2019-02-23T11:26:19.965Z,9.00
2019-02-23T11:27:24.507Z,9.00
2019-02-23T11:28:29.503Z,9.10
2019-02-23T11:29:38.355Z,9.10
2019-02-23T11:31:06.046Z,9.10
2019-02-23T11:32:35.842Z,9.10
2019-02-23T11:33:40.590Z,9.00
2019-02-23T11:34:45.239Z,9.00
2019-02-23T11:35:49.800Z,8.90
2019-02-23T11:36:55.926Z,9.00
2019-02-23T11:38:00.385Z,9.00
2019-02-23T11:39:05.517Z,9.00
2019-02-23T11:40:10.969Z,9.00
2019-02-23T11:41:15.726Z,9.00
2019-02-23T11:42:20.228Z,8.90
2019-02-23T11:43:24.657Z,8.90
2019-02-23T11:44:29.200Z,9.00
2019-02-23T11:45:33.699Z,9.00
2019-02-23T11:46:38.456Z,9.00
2019-02-23T11:47:43.840Z,9.10
2019-02-23T11:48:48.358Z,9.10
2019-02-23T11:49:53.215Z,9.20
2019-02-23T11:50:57.749Z,9.40
2019-02-23T11:52:02.379Z,9.40
2019-02-23T11:53:07.075Z,9.50
2019-02-23T11:54:11.656Z,9.40
2019-02-23T11:55:16.196Z,9.30
2019-02-23T11:56:20.737Z,9.40
2019-02-23T11:57:25.181Z,9.30
2019-02-23T11:58:29.709Z,9.30
2019-02-23T11:59:34.082Z,9.30
2019-02-23T12:00:38.629Z,9.30
2019-02-23T12:01:43.210Z,9.30
2019-02-23T12:02:52.428Z,9.40
2019-02-23T12:03:53.893Z,9.30
2019-02-23T12:04:58.413Z,9.30
2019-02-23T12:06:03.081Z,9.30
2019-02-23T12:07:07.863Z,9.40
2019-02-23T12:08:12.351Z,9.40
2019-02-23T12:09:16.881Z,9.50
2019-02-23T12:10:21.916Z,9.50
2019-02-23T12:11:26.650Z,9.50
2019-02-23T12:12:31.133Z,9.60
2019-02-23T12:13:36.587Z,9.60
2019-02-23T12:14:41.312Z,9.60
2019-02-23T12:15:45.884Z,9.60
2019-02-23T12:16:50.711Z,9.60
2019-02-23T12:17:55.217Z,9.60
2019-02-23T12:18:59.674Z,9.60
2019-02-23T12:20:04.705Z,9.60
2019-02-23T12:21:09.162Z,9.70
2019-02-23T12:22:16.071Z,9.70
2019-02-23T12:23:20.666Z,9.70
2019-02-23T12:24:29.177Z,9.80
2019-02-23T12:25:34.926Z,9.90
2019-02-23T12:26:39.423Z,10.00
2019-02-23T12:27:44.199Z,10.10
2019-02-23T12:28:48.804Z,10.10
2019-02-23T12:29:53.306Z,10.10
2019-02-23T12:30:57.726Z,10.10
2019-02-23T12:32:02.324Z,10.10
2019-02-23T12:33:07.041Z,10.10
2019-02-23T12:34:12.954Z,10.10
2019-02-23T12:35:20.624Z,10.10
2019-02-23T12:36:25.713Z,10.10
2019-02-23T12:37:30.232Z,10.00
2019-02-23T12:38:37.602Z,10.10
2019-02-23T12:39:42.341Z,10.00
2019-02-23T12:40:50.244Z,10.10
2019-02-23T12:41:55.022Z,10.10
2019-02-23T12:43:02.789Z,10.10
2019-02-23T12:44:07.833Z,10.10
2019-02-23T12:45:12.336Z,10.20
2019-02-23T12:46:16.927Z,10.20
2019-02-23T12:47:21.612Z,10.30
2019-02-23T12:48:26.151Z,10.40
2019-02-23T12:49:31.208Z,10.50
2019-02-23T12:50:35.803Z,10.50
2019-02-23T12:51:40.411Z,10.60
2019-02-23T12:52:44.985Z,10.60
2019-02-23T12:53:49.468Z,10.60
2019-02-23T12:54:54.002Z,10.70
2019-02-23T12:55:58.521Z,10.70
2019-02-23T12:57:03.069Z,10.70
2019-02-23T12:58:07.622Z,10.70
2019-02-23T12:59:12.305Z,10.60
2019-02-23T13:00:17.031Z,10.60
2019-02-23T13:01:24.397Z,10.50
2019-02-23T13:02:28.844Z,10.40
2019-02-23T13:03:33.363Z,10.30
2019-02-23T13:04:37.832Z,10.30
2019-02-23T13:05:42.340Z,10.30
2019-02-23T13:06:46.757Z,10.30
2019-02-23T13:07:51.169Z,10.30
2019-02-23T13:09:16.357Z,10.30
2019-02-23T13:10:20.875Z,10.40
2019-02-23T13:11:25.371Z,10.20
2019-02-23T13:13:06.453Z,10.10
2019-02-23T13:14:41.888Z,10.20
2019-02-23T13:16:23.396Z,10.30
2019-02-23T13:18:11.853Z,10.20
2019-02-23T13:19:45.817Z,10.20
2019-02-23T13:21:17.677Z,10.20
2019-02-23T13:22:48.436Z,10.20
2019-02-23T13:24:15.230Z,10.20
2019-02-23T13:26:24.904Z,10.20
2019-02-23T13:27:53.260Z,10.10
2019-02-23T13:29:23.877Z,10.00
2019-02-23T13:31:14.832Z,10.00
2019-02-23T13:32:34.657Z,10.00
2019-02-23T13:34:24.030Z,10.00
2019-02-23T13:36:12.700Z,10.00
2019-02-23T13:37:32.716Z,9.90
2019-02-23T13:38:54.295Z,10.00
2019-02-23T13:40:45.878Z,10.00
2019-02-23T13:42:52.582Z,10.10
2019-02-23T13:44:37.428Z,10.10
2019-02-23T13:46:01.661Z,10.10
2019-02-23T13:47:28.765Z,10.10
2019-02-23T13:48:50.795Z,10.20
2019-02-23T13:50:42.814Z,10.30
2019-02-23T13:52:43.549Z,10.30
2019-02-23T13:54:39.211Z,10.30
2019-02-23T13:56:19.795Z,10.20
2019-02-23T13:57:53.105Z,10.20
2019-02-23T13:59:53.285Z,10.20
2019-02-23T14:01:37.061Z,10.10
2019-02-23T14:03:09.494Z,9.90
2019-02-23T14:04:43.863Z,9.80
2019-02-23T14:06:21.031Z,9.70
2019-02-23T14:08:25.062Z,9.70
2019-02-23T14:10:06.346Z,9.70
2019-02-23T14:11:37.635Z,9.70
2019-02-23T14:13:14.293Z,9.70
2019-02-23T14:15:01.474Z,9.70
2019-02-23T14:16:33.169Z,9.70
2019-02-23T14:18:12.122Z,9.60
2019-02-23T14:19:37.719Z,9.60
2019-02-23T14:21:32.431Z,9.50
2019-02-23T14:23:08.869Z,9.50
2019-02-23T14:24:50.140Z,9.60
2019-02-23T14:26:22.441Z,9.60
2019-02-23T14:27:53.289Z,9.70
2019-02-23T14:29:33.621Z,9.60
2019-02-23T14:31:02.997Z,9.60
2019-02-23T14:32:51.790Z,9.60
2019-02-23T14:34:44.117Z,9.60
2019-02-23T14:36:14.132Z,9.70
2019-02-23T14:37:37.353Z,9.70
2019-02-23T14:39:35.349Z,9.70
2019-02-23T14:41:05.393Z,9.70
2019-02-23T14:42:19.683Z,9.80
2019-02-23T14:43:56.200Z,9.80
2019-02-23T14:45:47.430Z,9.80
2019-02-23T14:47:27.883Z,9.80
2019-02-23T14:48:59.224Z,9.90
2019-02-23T14:50:21.594Z,9.90
2019-02-23T14:52:03.263Z,10.00
2019-02-23T14:53:45.805Z,9.90
2019-02-23T14:55:34.366Z,9.90
2019-02-23T14:57:28.946Z,9.90
2019-02-23T14:58:49.789Z,9.80
2019-02-23T15:00:35.412Z,9.80
2019-02-23T15:02:06.249Z,9.70